Time;durP1;ratioP1;P1;durP2;ratioP2;P2;SDS_P1;SDS_P2;PMS_P1;PMS_P2;Temp;Humidity;BMP_temperature;BMP_pressure;BME280_temperature;BME280_humidity;BME280_pressure;Samples;Min_cycle;Max_cycle;Signal;HPM_P1;HPM_P2
2021/06/25 00:01:57;;;;;;;3.40;1.10;;;21.40;69.00;;;;;;5105830;28;27363;-58
2021/06/25 00:04:44;;;;;;;3.67;1.00;;;21.40;68.70;;;;;;5105725;28;27364;-59
2021/06/25 00:07:28;;;;;;;7.90;1.00;;;21.40;68.70;;;;;;5105700;28;27360;-59
2021/06/25 00:10:13;;;;;;;10.00;1.40;;;21.40;68.70;;;;;;5106018;28;27398;-59
2021/06/25 00:12:58;;;;;;;4.63;1.33;;;21.40;68.90;;;;;;5105812;28;27378;-58
2021/06/25 00:15:42;;;;;;;4.85;1.20;;;21.40;68.70;;;;;;5105572;28;27344;-59
2021/06/25 00:18:27;;;;;;;1.83;0.98;;;21.40;68.80;;;;;;5105511;28;27684;-58
2021/06/25 00:21:11;;;;;;;3.28;1.38;;;21.40;68.70;;;;;;5104760;28;27415;-59
2021/06/25 00:23:56;;;;;;;2.13;1.00;;;21.40;68.70;;;;;;5105664;28;26945;-59
2021/06/25 00:26:40;;;;;;;3.60;1.13;;;21.40;68.70;;;;;;5104538;28;27482;-58
2021/06/25 00:29:25;;;;;;;5.57;1.30;;;21.30;69.00;;;;;;5105462;28;27466;-58
2021/06/25 00:32:09;;;;;;;4.60;2.20;;;21.30;68.70;;;;;;5105267;27;27427;-59
2021/06/25 00:34:54;;;;;;;7.75;1.63;;;21.30;68.80;;;;;;5104140;28;27490;-58
2021/06/25 00:37:38;;;;;;;3.67;1.80;;;21.30;69.00;;;;;;5104820;28;27439;-59
2021/06/25 00:40:23;;;;;;;3.17;1.90;;;21.30;69.10;;;;;;5101265;28;27435;-59
2021/06/25 00:43:08;;;;;;;2.15;1.63;;;21.30;69.10;;;;;;5105481;28;27446;-58
2021/06/25 00:45:52;;;;;;;5.63;1.83;;;21.20;69.40;;;;;;5105120;28;27398;-59
2021/06/25 00:48:37;;;;;;;2.40;1.60;;;21.20;70.10;;;;;;5100855;28;27462;-59
2021/06/25 00:51:21;;;;;;;2.80;1.65;;;21.20;69.40;;;;;;5101990;28;27407;-59
2021/06/25 00:54:11;;;;;;;5.82;1.92;;;21.20;69.40;;;;;;5072278;28;27424;-59
2021/06/25 00:56:56;;;;;;;1.88;1.50;;;21.20;69.60;;;;;;5101889;28;27448;-57
2021/06/25 00:59:40;;;;;;;3.15;1.30;;;21.10;70.00;;;;;;5101792;28;27503;-57
2021/06/25 01:02:25;;;;;;;3.92;1.00;;;21.10;71.20;;;;;;5105017;28;27445;-57
2021/06/25 01:05:09;;;;;;;4.43;1.20;;;21.10;70.30;;;;;;5105123;28;27375;-57
2021/06/25 01:07:54;;;;;;;3.67;1.10;;;21.10;69.90;;;;;;5104970;28;27406;-57
2021/06/25 01:10:40;;;;;;;2.30;1.25;;;21.00;70.40;;;;;;5104965;28;27457;-58
2021/06/25 01:13:25;;;;;;;4.00;1.67;;;21.00;70.30;;;;;;5103031;28;27454;-56
2021/06/25 01:16:10;;;;;;;3.08;1.17;;;21.00;70.10;;;;;;5103885;28;27493;-57
2021/06/25 01:18:55;;;;;;;2.13;1.00;;;21.00;70.20;;;;;;5104643;28;27426;-57
2021/06/25 01:21:40;;;;;;;1.92;1.02;;;20.90;70.40;;;;;;5103743;28;27430;-57
2021/06/25 01:24:25;;;;;;;1.20;1.10;;;20.90;70.30;;;;;;5100318;28;27491;-57
2021/06/25 01:27:09;;;;;;;3.47;1.27;;;21.00;70.30;;;;;;5104759;28;27363;-57
2021/06/25 01:30:00;;;;;;;1.42;0.90;;;20.90;70.40;;;;;;5104505;28;27473;-57
2021/06/25 01:32:45;;;;;;;2.50;0.95;;;20.90;70.40;;;;;;5104563;28;27900;-57
2021/06/25 01:35:30;;;;;;;1.80;1.02;;;20.90;70.40;;;;;;5104254;28;27382;-57
2021/06/25 01:38:14;;;;;;;3.40;1.13;;;20.90;70.70;;;;;;5103134;28;27427;-59
2021/06/25 01:41:00;;;;;;;3.50;1.42;;;20.90;70.70;;;;;;5101289;28;27338;-57
2021/06/25 01:43:44;;;;;;;1.42;1.08;;;20.90;70.70;;;;;;5103256;27;27934;-57
2021/06/25 01:46:29;;;;;;;2.40;0.90;;;20.80;70.60;;;;;;5104441;28;27395;-57
2021/06/25 01:49:14;;;;;;;2.17;1.10;;;20.80;70.70;;;;;;5101058;28;27356;-57
2021/06/25 01:51:58;;;;;;;1.80;1.10;;;20.80;70.70;;;;;;5089005;28;27373;-57
2021/06/25 01:54:43;;;;;;;2.88;1.13;;;20.80;70.70;;;;;;5103891;28;27366;-56
2021/06/25 01:57:30;;;;;;;5.03;1.17;;;20.80;70.80;;;;;;5104086;28;27425;-54
2021/06/25 02:00:15;;;;;;;6.13;1.40;;;20.80;70.60;;;;;;5103848;28;27328;-55
2021/06/25 02:03:00;;;;;;;2.92;1.23;;;20.80;70.70;;;;;;5104226;28;27442;-56
2021/06/25 02:05:44;;;;;;;2.25;1.10;;;20.80;71.10;;;;;;5103377;28;27849;-57
2021/06/25 02:08:28;;;;;;;2.08;1.35;;;20.80;70.90;;;;;;5103915;28;27399;-57
2021/06/25 02:11:14;;;;;;;0.82;0.82;;;20.70;70.80;;;;;;5103808;28;27407;-57
2021/06/25 02:13:59;;;;;;;4.18;1.52;;;20.70;71.00;;;;;;5103627;28;27388;-58
2021/06/25 02:16:43;;;;;;;1.75;1.00;;;20.80;71.00;;;;;;5102754;28;27287;-57
2021/06/25 02:19:28;;;;;;;1.80;0.98;;;20.70;71.10;;;;;;5103036;28;27374;-58
2021/06/25 02:22:12;;;;;;;12.68;3.47;;;20.70;71.00;;;;;;5102863;28;27363;-57
2021/06/25 02:24:57;;;;;;;3.95;1.10;;;20.70;71.10;;;;;;5103832;28;27352;-58
2021/06/25 02:27:41;;;;;;;1.25;1.15;;;20.70;71.10;;;;;;5103271;28;27473;-57
2021/06/25 02:30:26;;;;;;;1.55;0.90;;;20.70;71.20;;;;;;5103728;28;27464;-57
2021/06/25 02:33:11;;;;;;;1.20;1.10;;;20.60;71.10;;;;;;5102121;28;27577;-58
2021/06/25 02:35:55;;;;;;;6.95;1.90;;;20.60;71.40;;;;;;5103419;28;27427;-57
2021/06/25 02:38:40;;;;;;;1.55;1.10;;;20.60;71.00;;;;;;5102800;28;27488;-56
2021/06/25 02:41:24;;;;;;;1.17;1.08;;;20.60;71.10;;;;;;5103544;28;27418;-57
2021/06/25 02:44:09;;;;;;;3.53;1.05;;;20.60;71.00;;;;;;5103588;28;27475;-57
2021/06/25 02:46:53;;;;;;;5.40;1.38;;;20.60;71.10;;;;;;5103198;28;27455;-57
2021/06/25 02:49:38;;;;;;;4.57;1.10;;;20.60;71.00;;;;;;5103221;28;27405;-56
2021/06/25 02:52:22;;;;;;;2.22;1.00;;;20.60;71.10;;;;;;5103156;28;27482;-58
2021/06/25 02:55:11;;;;;;;1.58;1.13;;;20.60;70.90;;;;;;5104261;28;27457;-58
2021/06/25 02:57:56;;;;;;;1.52;1.10;;;20.60;70.80;;;;;;5105995;28;27487;-58
2021/06/25 03:00:40;;;;;;;2.33;1.00;;;20.60;71.00;;;;;;5106187;28;27452;-57
2021/06/25 03:03:25;;;;;;;3.30;0.98;;;20.60;71.00;;;;;;5106942;28;27433;-58
2021/06/25 03:06:10;;;;;;;4.63;1.45;;;20.60;71.00;;;;;;5103743;28;27447;-59
2021/06/25 03:08:55;;;;;;;4.22;1.02;;;20.60;71.00;;;;;;5106918;28;27474;-57
2021/06/25 03:11:39;;;;;;;4.47;1.88;;;20.50;71.10;;;;;;5103436;28;27828;-57
2021/06/25 03:14:23;;;;;;;3.33;1.70;;;20.50;71.30;;;;;;5106626;28;27430;-57
2021/06/25 03:17:09;;;;;;;4.30;1.40;;;20.50;71.40;;;;;;5106884;28;27481;-57
2021/06/25 03:19:53;;;;;;;1.27;1.17;;;20.50;71.30;;;;;;5106570;28;27418;-57
2021/06/25 03:22:38;;;;;;;2.45;1.00;;;20.50;71.30;;;;;;5087994;28;27506;-58
2021/06/25 03:25:22;;;;;;;2.20;1.13;;;20.50;71.20;;;;;;5106583;28;27478;-58
2021/06/25 03:28:07;;;;;;;5.22;1.30;;;20.50;71.30;;;;;;5105815;28;27336;-58
2021/06/25 03:30:51;;;;;;;2.58;1.27;;;20.50;71.40;;;;;;5103036;28;27331;-58
2021/06/25 03:33:36;;;;;;;1.60;1.10;;;20.50;71.60;;;;;;5106133;28;27394;-57
2021/06/25 03:36:21;;;;;;;3.17;1.27;;;20.50;71.50;;;;;;5102178;28;27385;-57
2021/06/25 03:39:05;;;;;;;2.90;1.20;;;20.50;71.60;;;;;;5105709;28;27319;-57
2021/06/25 03:41:50;;;;;;;1.27;1.02;;;20.50;71.80;;;;;;5106526;28;27316;-57
2021/06/25 03:44:35;;;;;;;6.20;1.58;;;20.50;72.00;;;;;;5102016;28;27917;-57
2021/06/25 03:47:19;;;;;;;1.00;0.90;;;20.40;72.00;;;;;;5105999;28;27417;-56
2021/06/25 03:50:04;;;;;;;3.33;1.17;;;20.40;71.80;;;;;;5106124;28;27312;-58
2021/06/25 03:52:49;;;;;;;1.20;0.90;;;20.40;71.90;;;;;;5106294;28;27375;-57
2021/06/25 03:55:33;;;;;;;1.35;1.00;;;20.40;71.70;;;;;;5105675;28;27393;-57
2021/06/25 03:58:18;;;;;;;3.67;0.80;;;20.40;71.90;;;;;;5105176;28;27501;-57
2021/06/25 04:01:03;;;;;;;1.17;0.90;;;20.40;71.90;;;;;;5101784;28;27371;-58
2021/06/25 04:03:48;;;;;;;3.15;1.05;;;20.40;71.60;;;;;;5105965;28;27415;-57
2021/06/25 04:06:33;;;;;;;2.45;0.73;;;20.40;72.00;;;;;;5105285;27;27390;-57
2021/06/25 04:09:17;;;;;;;1.33;0.75;;;20.40;71.90;;;;;;5101717;28;27408;-58
2021/06/25 04:12:02;;;;;;;1.73;0.90;;;20.40;72.10;;;;;;5101864;28;27473;-58
2021/06/25 04:14:46;;;;;;;0.80;0.70;;;20.40;71.90;;;;;;5105530;28;27461;-59
2021/06/25 04:17:31;;;;;;;0.75;0.75;;;20.40;71.70;;;;;;5105706;28;27979;-58
2021/06/25 04:20:17;;;;;;;2.17;0.88;;;20.40;72.10;;;;;;5105439;28;27481;-58
2021/06/25 04:23:02;;;;;;;1.42;1.00;;;20.40;72.00;;;;;;5105288;28;27324;-57
2021/06/25 04:25:46;;;;;;;3.03;0.63;;;20.40;72.30;;;;;;5105709;28;27380;-57
2021/06/25 04:28:33;;;;;;;0.77;0.70;;;20.40;72.10;;;;;;5105681;28;27852;-58
2021/06/25 04:31:17;;;;;;;1.88;0.80;;;20.40;72.00;;;;;;5102017;28;27381;-58
2021/06/25 04:34:03;;;;;;;1.90;0.65;;;20.40;71.90;;;;;;5105467;28;27386;-58
2021/06/25 04:36:47;;;;;;;3.65;0.80;;;20.40;71.90;;;;;;5105269;28;27418;-58
2021/06/25 04:39:32;;;;;;;0.90;0.73;;;20.40;71.90;;;;;;5104376;28;27997;-58
2021/06/25 04:42:17;;;;;;;0.50;0.50;;;20.40;71.80;;;;;;5101301;28;27385;-58
2021/06/25 04:45:02;;;;;;;1.13;0.52;;;20.40;72.10;;;;;;5105310;28;27481;-58
2021/06/25 04:47:46;;;;;;;1.58;0.70;;;20.40;72.00;;;;;;5104510;28;27427;-57
2021/06/25 04:50:31;;;;;;;2.28;0.70;;;20.40;71.90;;;;;;5104798;28;27493;-59
2021/06/25 04:53:16;;;;;;;1.50;1.15;;;20.40;72.20;;;;;;5104934;28;27503;-59
2021/06/25 04:56:01;;;;;;;1.35;0.95;;;20.40;72.10;;;;;;5105240;28;27473;-58
2021/06/25 04:58:45;;;;;;;0.45;0.45;;;20.40;72.40;;;;;;5101214;28;27419;-57
2021/06/25 05:01:30;;;;;;;0.63;0.60;;;20.30;72.40;;;;;;5104887;28;27474;-56
2021/06/25 05:04:15;;;;;;;1.08;0.77;;;20.30;72.40;;;;;;5104758;28;27493;-57
2021/06/25 05:06:59;;;;;;;1.60;0.63;;;20.30;72.60;;;;;;5101523;28;27375;-58
2021/06/25 05:09:44;;;;;;;2.65;0.75;;;20.30;72.70;;;;;;5104686;28;27430;-57
2021/06/25 05:12:28;;;;;;;1.98;0.60;;;20.30;72.90;;;;;;5086218;28;27464;-57
2021/06/25 05:15:14;;;;;;;2.92;0.55;;;20.30;72.70;;;;;;5104570;28;27501;-57
2021/06/25 05:18:13;;;;;;;1.45;0.60;;;20.30;72.80;;;;;;5102789;27;27430;-57
2021/06/25 05:20:58;;;;;;;3.58;0.70;;;20.30;73.00;;;;;;5104017;28;27454;-57
2021/06/25 05:23:42;;;;;;;1.25;0.80;;;20.30;72.60;;;;;;5104778;28;27405;-56
2021/06/25 05:26:27;;;;;;;0.80;0.70;;;20.30;73.00;;;;;;5086007;28;27500;-57
2021/06/25 05:29:11;;;;;;;1.25;0.70;;;20.30;73.40;;;;;;5104489;28;27477;-57
2021/06/25 05:31:56;;;;;;;0.52;0.50;;;20.30;73.50;;;;;;5104445;28;27469;-57
2021/06/25 05:34:41;;;;;;;0.90;0.60;;;20.30;73.50;;;;;;5104381;28;27480;-57
2021/06/25 05:37:27;;;;;;;0.80;0.60;;;20.30;73.50;;;;;;5104353;28;27579;-59
2021/06/25 05:40:13;;;;;;;1.90;0.70;;;20.30;73.50;;;;;;5104311;28;27433;-58
2021/06/25 05:42:57;;;;;;;3.40;0.73;;;20.30;73.40;;;;;;5104544;28;27341;-58
2021/06/25 05:45:42;;;;;;;1.08;0.65;;;20.30;73.40;;;;;;5103959;28;27477;-59
2021/06/25 05:48:27;;;;;;;0.57;0.57;;;20.30;73.40;;;;;;5103539;28;27542;-57
2021/06/25 05:51:12;;;;;;;0.70;0.70;;;20.30;73.00;;;;;;5104100;28;27485;-58
2021/06/25 05:53:57;;;;;;;3.08;1.05;;;20.30;73.30;;;;;;5103991;28;27441;-58
2021/06/25 05:56:42;;;;;;;1.05;0.70;;;20.40;73.30;;;;;;5099870;28;27441;-57
2021/06/25 05:59:26;;;;;;;1.05;0.65;;;20.40;73.30;;;;;;5103403;28;27493;-57
2021/06/25 06:02:11;;;;;;;1.55;0.73;;;20.40;73.30;;;;;;5103268;28;27493;-58
2021/06/25 06:04:56;;;;;;;2.92;0.65;;;20.50;73.50;;;;;;5104126;28;27420;-58
2021/06/25 06:07:41;;;;;;;1.13;0.70;;;20.50;73.70;;;;;;5103977;28;27432;-58
2021/06/25 06:10:25;;;;;;;0.98;0.60;;;20.50;73.60;;;;;;5104517;28;27480;-57
2021/06/25 06:13:10;;;;;;;0.75;0.60;;;20.50;73.50;;;;;;5104430;28;27414;-57
2021/06/25 06:15:57;;;;;;;4.07;0.70;;;20.60;73.60;;;;;;5104040;28;27500;-58
2021/06/25 06:18:48;;;;;;;1.17;0.57;;;20.60;73.60;;;;;;5104692;28;27423;-58
2021/06/25 06:33:53;;;;;;;0.43;0.43;;;20.70;73.10;;;;;;5104627;28;27439;-57
2021/06/25 06:36:45;;;;;;;2.83;0.65;;;20.70;73.10;;;;;;5104579;28;27432;-58
2021/06/25 06:39:30;;;;;;;0.50;0.50;;;20.70;73.20;;;;;;5103591;28;27354;-58
2021/06/25 06:42:14;;;;;;;0.77;0.60;;;20.80;74.00;;;;;;5104709;28;27402;-57
2021/06/25 06:44:59;;;;;;;0.47;0.35;;;20.80;73.40;;;;;;5101438;28;27379;-57
2021/06/25 06:47:44;;;;;;;0.63;0.40;;;20.80;73.50;;;;;;5104717;28;27393;-58
2021/06/25 06:50:29;;;;;;;1.73;0.50;;;20.90;73.50;;;;;;5104617;28;27397;-58
2021/06/25 06:53:14;;;;;;;0.75;0.50;;;20.90;73.40;;;;;;5104440;28;27397;-58
2021/06/25 06:55:59;;;;;;;0.60;0.40;;;21.00;74.40;;;;;;5104284;28;27402;-58
2021/06/25 06:58:48;;;;;;;0.55;0.55;;;21.00;73.40;;;;;;5104318;28;27381;-58
2021/06/25 07:01:33;;;;;;;0.73;0.45;;;21.10;73.40;;;;;;5101165;28;27446;-58
2021/06/25 07:04:17;;;;;;;1.23;0.40;;;21.10;73.40;;;;;;5104108;28;27962;-58
2021/06/25 07:07:02;;;;;;;0.52;0.40;;;21.20;73.40;;;;;;5087478;28;27546;-58
2021/06/25 07:09:46;;;;;;;2.47;0.35;;;21.20;73.30;;;;;;5100410;28;27364;-58
2021/06/25 07:12:31;;;;;;;0.75;0.35;;;21.20;73.00;;;;;;5104102;28;27319;-58
2021/06/25 07:15:15;;;;;;;0.55;0.35;;;21.30;73.10;;;;;;5103901;28;27437;-58
2021/06/25 07:18:00;;;;;;;1.05;0.38;;;21.30;73.20;;;;;;5103981;28;27340;-58
2021/06/25 07:20:45;;;;;;;0.77;0.63;;;21.40;73.40;;;;;;5104278;28;27377;-58
2021/06/25 07:23:30;;;;;;;0.30;0.30;;;21.40;73.20;;;;;;5104271;28;27402;-58
2021/06/25 07:26:15;;;;;;;0.68;0.40;;;21.50;73.50;;;;;;5103123;28;27392;-58
2021/06/25 07:28:59;;;;;;;0.98;0.47;;;21.50;73.60;;;;;;5103087;28;27332;-58
2021/06/25 07:31:44;;;;;;;1.70;0.50;;;21.60;73.50;;;;;;5103855;28;27382;-58
2021/06/25 07:34:29;;;;;;;0.45;0.45;;;21.60;73.40;;;;;;5103331;28;27418;-59
2021/06/25 07:37:13;;;;;;;0.30;0.30;;;21.70;73.30;;;;;;5103990;28;27312;-58
2021/06/25 07:39:58;;;;;;;1.45;0.60;;;21.70;73.30;;;;;;5102066;28;27490;-58
2021/06/25 07:42:43;;;;;;;0.45;0.45;;;21.80;73.10;;;;;;5106043;28;27339;-58
2021/06/25 07:45:27;;;;;;;0.45;0.45;;;21.90;72.70;;;;;;5108726;28;27382;-58
2021/06/25 07:48:12;;;;;;;3.25;0.43;;;21.90;72.50;;;;;;5107124;28;27470;-58
2021/06/25 07:50:56;;;;;;;0.50;0.50;;;22.00;72.30;;;;;;5106981;28;27415;-58
2021/06/25 07:53:41;;;;;;;0.60;0.57;;;22.10;72.10;;;;;;5107019;28;27479;-58
2021/06/25 07:56:26;;;;;;;0.50;0.50;;;22.20;72.00;;;;;;5106491;28;27469;-58
2021/06/25 07:59:11;;;;;;;0.40;0.40;;;22.20;71.80;;;;;;5103147;28;27462;-58
2021/06/25 08:01:56;;;;;;;2.05;0.52;;;22.20;71.60;;;;;;5103564;28;27478;-58
2021/06/25 08:04:45;;;;;;;0.75;0.40;;;22.30;71.20;;;;;;5107208;28;27411;-59
2021/06/25 08:07:30;;;;;;;0.50;0.50;;;22.30;70.50;;;;;;5106833;28;27421;-58
2021/06/25 08:10:14;;;;;;;0.63;0.63;;;22.40;70.00;;;;;;5106710;28;27329;-58
2021/06/25 08:12:59;;;;;;;0.60;0.50;;;22.40;69.90;;;;;;5106961;28;27521;-58
2021/06/25 08:15:49;;;;;;;1.20;0.70;;;22.50;70.10;;;;;;5106664;28;27402;-58
2021/06/25 08:18:33;;;;;;;0.70;0.50;;;22.60;70.00;;;;;;5105807;28;27488;-58
2021/06/25 08:21:18;;;;;;;2.33;0.60;;;22.60;70.10;;;;;;5106541;28;27485;-58
2021/06/25 08:24:03;;;;;;;0.70;0.70;;;22.70;70.20;;;;;;5106825;28;27486;-59
2021/06/25 08:26:48;;;;;;;0.60;0.50;;;22.70;70.30;;;;;;5106637;28;27508;-58
2021/06/25 08:29:33;;;;;;;0.60;0.60;;;22.80;70.10;;;;;;5106260;28;27485;-58
2021/06/25 08:32:17;;;;;;;0.93;0.52;;;22.90;70.10;;;;;;5106379;28;27958;-58
2021/06/25 08:35:03;;;;;;;1.08;0.82;;;22.90;69.80;;;;;;5087680;28;27423;-58
2021/06/25 08:37:49;;;;;;;0.50;0.50;;;22.90;69.20;;;;;;5105776;28;27548;-59
2021/06/25 08:40:34;;;;;;;1.00;0.50;;;23.00;69.20;;;;;;5106330;28;27327;-58
2021/06/25 08:43:18;;;;;;;0.60;0.60;;;23.00;68.80;;;;;;5106227;28;27464;-58
2021/06/25 08:46:03;;;;;;;0.98;0.50;;;23.00;68.40;;;;;;5102158;28;27508;-58
2021/06/25 08:48:48;;;;;;;0.65;0.52;;;23.00;68.30;;;;;;5105771;28;27431;-58
2021/06/25 08:51:33;;;;;;;0.75;0.65;;;23.00;68.10;;;;;;5087739;28;27417;-58
2021/06/25 08:54:17;;;;;;;0.60;0.60;;;23.00;67.80;;;;;;5105516;28;27480;-58
2021/06/25 08:57:07;;;;;;;0.55;0.55;;;23.00;67.70;;;;;;5102737;28;27446;-58
2021/06/25 08:59:52;;;;;;;0.77;0.77;;;23.10;67.60;;;;;;5106082;28;27559;-58
2021/06/25 09:02:36;;;;;;;1.20;0.75;;;23.10;67.60;;;;;;5105985;28;27472;-58
2021/06/25 09:05:21;;;;;;;0.60;0.60;;;23.00;67.00;;;;;;5105866;28;27481;-58
2021/06/25 09:08:06;;;;;;;0.77;0.47;;;23.00;66.70;;;;;;5106036;28;27475;-58
2021/06/25 09:10:53;;;;;;;0.77;0.77;;;23.00;66.40;;;;;;5105895;28;27446;-58
2021/06/25 09:13:38;;;;;;;0.80;0.80;;;23.00;66.50;;;;;;5106032;28;27331;-58
2021/06/25 09:16:23;;;;;;;1.42;0.90;;;23.00;66.50;;;;;;5105789;28;27837;-58
2021/06/25 09:19:16;;;;;;;2.40;0.43;;;23.00;66.60;;;;;;5105679;28;27412;-58
2021/06/25 09:22:03;;;;;;;0.60;0.60;;;23.00;66.60;;;;;;5105601;28;26848;-58
2021/06/25 09:25:07;;;;;;;1.00;0.90;;;23.00;66.30;;;;;;5102297;28;27480;-58
2021/06/25 09:27:56;;;;;;;0.50;0.50;;;22.90;66.40;;;;;;5101683;28;27845;-58
2021/06/25 09:30:42;;;;;;;1.02;0.52;;;22.90;66.60;;;;;;5104964;28;27410;-58
2021/06/25 09:33:27;;;;;;;1.13;0.88;;;22.90;66.80;;;;;;5105381;28;27394;-58
2021/06/25 09:36:32;;;;;;;1.85;0.80;;;22.90;66.60;;;;;;5105748;28;27363;-58
2021/06/25 09:39:17;;;;;;;0.90;0.70;;;22.90;66.20;;;;;;5104623;28;27816;-58
2021/06/25 09:42:02;;;;;;;1.40;0.93;;;22.90;66.30;;;;;;5105581;28;27352;-58
2021/06/25 09:45:08;;;;;;;4.38;0.98;;;22.80;66.30;;;;;;5105625;28;27398;-58
2021/06/25 09:47:54;;;;;;;2.50;0.93;;;22.80;66.50;;;;;;5105200;28;27473;-59
2021/06/25 09:50:39;;;;;;;1.48;0.90;;;22.70;66.40;;;;;;5104871;28;27422;-58
2021/06/25 09:53:25;;;;;;;0.77;0.77;;;22.70;66.30;;;;;;5105287;28;27462;-58
2021/06/25 09:56:25;;;;;;;2.05;1.20;;;22.70;66.10;;;;;;5104411;28;27411;-59
2021/06/25 09:59:32;;;;;;;2.95;1.13;;;22.70;66.10;;;;;;5104295;28;27375;-58
2021/06/25 10:02:19;;;;;;;3.42;1.00;;;22.70;66.80;;;;;;5104910;28;27339;-60
2021/06/25 10:05:14;;;;;;;1.20;0.85;;;22.70;65.90;;;;;;5104463;28;27454;-58
2021/06/25 10:07:58;;;;;;;3.53;1.17;;;22.80;65.90;;;;;;5104962;28;27441;-58
2021/06/25 10:10:43;;;;;;;2.53;1.02;;;22.90;65.90;;;;;;5101631;28;27558;-59
2021/06/25 10:13:33;;;;;;;0.88;0.82;;;22.90;65.90;;;;;;5104258;28;27964;-59
2021/06/25 10:16:18;;;;;;;1.02;0.90;;;22.90;65.90;;;;;;5087049;28;27388;-58
2021/06/25 10:19:03;;;;;;;0.70;0.70;;;22.90;65.70;;;;;;5102964;28;26990;-58
2021/06/25 10:21:48;;;;;;;0.93;0.90;;;23.00;65.90;;;;;;5104003;28;27398;-58
2021/06/25 10:24:34;;;;;;;0.82;0.80;;;23.00;65.70;;;;;;5103900;28;27411;-58
2021/06/25 10:27:19;;;;;;;0.93;0.70;;;23.10;65.70;;;;;;5104662;28;27367;-58
2021/06/25 10:30:05;;;;;;;1.10;0.80;;;23.10;65.90;;;;;;5104658;28;27375;-58
2021/06/25 10:32:49;;;;;;;1.52;1.13;;;23.10;65.90;;;;;;5104650;28;27331;-59
2021/06/25 10:35:34;;;;;;;0.70;0.70;;;23.10;65.70;;;;;;5103746;28;27394;-58
2021/06/25 10:38:19;;;;;;;1.10;0.73;;;23.00;65.70;;;;;;5103794;28;27328;-59
2021/06/25 10:41:05;;;;;;;0.73;0.73;;;23.00;65.40;;;;;;5103750;28;27335;-58
2021/06/25 10:43:51;;;;;;;1.60;0.73;;;23.00;65.50;;;;;;5100423;28;27382;-58
2021/06/25 10:46:38;;;;;;;1.40;0.82;;;22.90;65.60;;;;;;5103120;28;27342;-58
2021/06/25 10:49:22;;;;;;;0.90;0.90;;;22.90;65.60;;;;;;5104395;28;27410;-58
2021/06/25 10:52:10;;;;;;;0.77;0.77;;;22.90;65.70;;;;;;5103659;28;27402;-59
2021/06/25 10:55:01;;;;;;;0.90;0.90;;;22.90;65.90;;;;;;5104069;28;27415;-59
2021/06/25 10:57:49;;;;;;;0.60;0.60;;;22.80;65.80;;;;;;5104509;28;27979;-59
2021/06/25 11:00:40;;;;;;;1.25;0.88;;;22.90;65.90;;;;;;5104461;28;27447;-59
2021/06/25 11:03:41;;;;;;;1.67;0.75;;;22.90;65.70;;;;;;5104561;28;27325;-59
2021/06/25 11:06:50;;;;;;;1.17;0.80;;;22.90;66.00;;;;;;5104461;28;27384;-60
2021/06/25 11:09:53;;;;;;;1.50;0.90;;;22.80;65.90;;;;;;5100312;28;27384;-59
2021/06/25 11:12:39;;;;;;;0.70;0.70;;;22.80;65.90;;;;;;5102994;28;27390;-59
2021/06/25 11:15:31;;;;;;;1.48;0.88;;;22.80;65.90;;;;;;5103979;27;27332;-59
2021/06/25 11:18:20;;;;;;;1.10;1.00;;;22.80;65.70;;;;;;5106952;28;27402;-60
2021/06/25 11:21:07;;;;;;;3.58;0.80;;;22.80;66.00;;;;;;5107482;28;27368;-59
2021/06/25 11:23:52;;;;;;;0.70;0.60;;;22.80;66.10;;;;;;5107536;28;27413;-59
2021/06/25 11:26:52;;;;;;;1.00;0.90;;;22.70;65.80;;;;;;5107069;28;27395;-59
2021/06/25 11:29:46;;;;;;;1.75;0.77;;;22.70;66.20;;;;;;5107006;28;27472;-59
2021/06/25 11:32:31;;;;;;;1.00;0.90;;;22.70;66.10;;;;;;5104291;28;27376;-59
2021/06/25 11:35:41;;;;;;;0.82;0.77;;;22.70;66.30;;;;;;5103701;28;27420;-59
2021/06/25 11:39:03;;;;;;;1.00;0.70;;;22.70;66.40;;;;;;5106037;28;27400;-59
2021/06/25 11:42:07;;;;;;;1.30;1.20;;;22.70;67.20;;;;;;5107271;28;27378;-59
2021/06/25 11:44:52;;;;;;;1.25;1.00;;;22.70;66.00;;;;;;5107386;28;27414;-60
2021/06/25 11:47:42;;;;;;;1.27;1.10;;;22.70;66.00;;;;;;5106383;28;27473;-59
2021/06/25 11:50:27;;;;;;;2.75;1.20;;;22.80;66.40;;;;;;5106726;28;27395;-59
2021/06/25 11:53:12;;;;;;;1.13;1.02;;;22.90;66.80;;;;;;5106335;28;27340;-59
2021/06/25 11:55:57;;;;;;;1.38;1.10;;;23.10;67.20;;;;;;5107244;28;27398;-60
2021/06/25 11:58:59;;;;;;;3.38;1.20;;;23.40;67.50;;;;;;5103176;28;27398;-59
2021/06/25 12:02:02;;;;;;;2.05;1.45;;;23.70;68.00;;;;;;5107251;28;27319;-60
2021/06/25 12:04:47;;;;;;;1.30;1.20;;;23.90;67.60;;;;;;5106321;28;27430;-61
2021/06/25 12:07:32;;;;;;;1.80;1.70;;;24.00;67.20;;;;;;5106760;28;27865;-60
2021/06/25 12:10:17;;;;;;;1.67;1.48;;;24.10;66.40;;;;;;5103736;28;27423;-60
2021/06/25 12:13:02;;;;;;;1.77;1.50;;;24.20;66.10;;;;;;5106799;28;27411;-60
2021/06/25 12:15:48;;;;;;;2.38;1.40;;;24.30;65.70;;;;;;5106743;28;27453;-60
2021/06/25 12:18:33;;;;;;;1.70;1.60;;;24.40;65.50;;;;;;5106954;28;27352;-60
2021/06/25 12:21:18;;;;;;;1.30;1.20;;;24.40;65.30;;;;;;5106113;28;27477;-62
2021/06/25 12:24:03;;;;;;;1.42;1.33;;;24.50;65.30;;;;;;5106653;28;27421;-60
2021/06/25 12:26:48;;;;;;;1.35;1.25;;;24.60;65.40;;;;;;5106777;28;27401;-60
2021/06/25 12:29:34;;;;;;;2.95;1.35;;;24.80;65.40;;;;;;5106272;28;27382;-60
2021/06/25 12:32:19;;;;;;;2.65;1.33;;;24.80;64.90;;;;;;5103380;28;27308;-60
2021/06/25 12:35:04;;;;;;;1.52;1.42;;;24.90;64.20;;;;;;5106096;28;27389;-60
2021/06/25 12:37:53;;;;;;;1.48;1.38;;;25.00;63.90;;;;;;5105986;28;27317;-60
2021/06/25 12:40:46;;;;;;;1.95;1.40;;;25.10;63.90;;;;;;5106573;28;27828;-60
2021/06/25 12:43:31;;;;;;;1.40;1.30;;;25.30;64.50;;;;;;5106523;28;27383;-60
2021/06/25 12:46:17;;;;;;;2.45;2.15;;;25.30;64.30;;;;;;5106587;28;27449;-61
2021/06/25 12:49:03;;;;;;;2.13;1.85;;;25.40;63.90;;;;;;5106246;28;27378;-60
2021/06/25 12:51:48;;;;;;;1.95;1.80;;;25.50;63.70;;;;;;5106112;28;27448;-60
2021/06/25 12:54:33;;;;;;;2.22;1.50;;;25.60;64.60;;;;;;5106295;28;27449;-60
2021/06/25 12:57:20;;;;;;;2.22;2.08;;;25.70;63.50;;;;;;5087990;28;27324;-60
2021/06/25 13:00:05;;;;;;;2.10;1.90;;;25.60;63.20;;;;;;5101954;28;27453;-60
2021/06/25 13:02:50;;;;;;;1.73;1.63;;;25.60;63.10;;;;;;5090836;28;27441;-60
2021/06/25 13:05:35;;;;;;;2.25;1.80;;;25.50;62.60;;;;;;5105369;28;27477;-60
2021/06/25 13:08:27;;;;;;;2.58;2.13;;;25.40;61.50;;;;;;5105824;28;27484;-62
2021/06/25 13:11:41;;;;;;;3.08;2.20;;;25.30;61.40;;;;;;5087476;28;27370;-63
2021/06/25 13:14:45;;;;;;;3.15;1.70;;;25.20;62.10;;;;;;5101571;28;27489;-62
2021/06/25 13:17:38;;;;;;;2.55;1.80;;;25.00;62.40;;;;;;5105727;28;27379;-64
2021/06/25 13:20:37;;;;;;;2.38;2.17;;;24.90;62.70;;;;;;5105047;28;27349;-60
2021/06/25 13:23:38;;;;;;;3.95;2.03;;;24.80;62.70;;;;;;5104880;28;27415;-62
2021/06/25 13:26:52;;;;;;;7.45;2.20;;;24.80;60.40;;;;;;5105215;28;27934;-62
2021/06/25 13:29:47;;;;;;;3.75;2.25;;;24.60;55.80;;;;;;5104778;27;27469;-60
2021/06/25 13:32:32;;;;;;;2.38;2.13;;;24.50;56.10;;;;;;5105558;28;26984;-60
2021/06/25 13:35:17;;;;;;;3.60;2.47;;;24.40;55.90;;;;;;5105404;28;27481;-59
2021/06/25 13:38:03;;;;;;;2.85;2.30;;;24.30;55.30;;;;;;5089305;28;27384;-61
2021/06/25 13:40:58;;;;;;;2.50;2.30;;;24.20;55.80;;;;;;5104186;28;27411;-59
2021/06/25 13:43:44;;;;;;;2.42;2.22;;;24.10;58.00;;;;;;5105376;28;27469;-59
2021/06/25 13:46:28;;;;;;;3.00;2.28;;;24.00;58.70;;;;;;5105603;28;27368;-60
2021/06/25 13:49:13;;;;;;;2.65;2.20;;;24.00;59.10;;;;;;5086757;28;27355;-59
2021/06/25 13:51:58;;;;;;;2.58;1.73;;;24.00;59.60;;;;;;5102246;28;27491;-61
2021/06/25 13:54:49;;;;;;;3.53;2.08;;;23.90;59.90;;;;;;5105237;28;27435;-59
2021/06/25 13:57:50;;;;;;;6.93;2.70;;;23.80;59.10;;;;;;5105305;28;27461;-60
2021/06/25 14:00:41;;;;;;;6.80;3.03;;;23.70;60.30;;;;;;5105157;28;27896;-61
2021/06/25 14:03:30;;;;;;;3.92;3.13;;;23.70;61.50;;;;;;5105322;28;27407;-60
2021/06/25 14:06:17;;;;;;;3.45;2.75;;;23.70;62.10;;;;;;5105352;28;27381;-61
2021/06/25 14:09:17;;;;;;;3.28;2.35;;;23.60;62.40;;;;;;5101331;28;27374;-59
2021/06/25 14:12:15;;;;;;;2.45;2.10;;;23.70;62.70;;;;;;5104965;28;27477;-60
2021/06/25 14:15:02;;;;;;;2.50;1.75;;;23.60;62.80;;;;;;5103904;28;27358;-59
2021/06/25 14:18:00;;;;;;;3.40;2.30;;;23.70;63.30;;;;;;5104159;28;27465;-60
2021/06/25 14:20:49;;;;;;;2.35;1.70;;;23.70;63.70;;;;;;5101552;28;27472;-59
2021/06/25 14:23:44;;;;;;;2.40;1.75;;;23.70;63.90;;;;;;5104352;28;28029;-60
2021/06/25 14:26:36;;;;;;;2.03;1.90;;;23.70;64.30;;;;;;5104308;28;27424;-60
2021/06/25 14:29:24;;;;;;;6.15;1.80;;;23.80;64.20;;;;;;5104013;28;27449;-61
2021/06/25 14:32:11;;;;;;;1.90;1.80;;;23.90;64.20;;;;;;5103962;28;27387;-60
2021/06/25 14:35:21;;;;;;;3.70;1.73;;;24.00;64.70;;;;;;5103945;28;27891;-61
2021/06/25 14:38:08;;;;;;;2.00;1.80;;;24.20;65.00;;;;;;5081309;28;27548;-59
2021/06/25 14:40:56;;;;;;;2.28;2.08;;;24.30;65.10;;;;;;5082518;28;27400;-63
2021/06/25 14:43:45;;;;;;;2.20;2.00;;;24.40;64.60;;;;;;5082393;28;27498;-59